createdAt,value
2022-10-19T00:01:08.579Z,74.92
2022-10-19T00:04:35.250Z,74.91
2022-10-19T00:08:06.237Z,74.98
2022-10-19T00:11:34.330Z,75.02
2022-10-19T00:15:01.740Z,74.75
2022-10-19T00:18:28.532Z,74.76
2022-10-19T00:21:56.454Z,74.89
2022-10-19T00:25:23.414Z,74.75
2022-10-19T00:28:50.639Z,74.79
2022-10-19T00:32:17.529Z,74.98
2022-10-19T00:35:45.093Z,74.83
2022-10-19T00:39:15.679Z,74.94
2022-10-19T00:42:42.580Z,75.01
2022-10-19T00:46:16.338Z,75.09
2022-10-19T00:49:42.984Z,75.25
2022-10-19T00:53:10.038Z,75.44
2022-10-19T00:56:40.009Z,75.44
2022-10-19T01:00:11.690Z,75.21
2022-10-19T01:03:39.541Z,75.49
2022-10-19T01:07:08.307Z,75.42
2022-10-19T01:10:44.867Z,75.28
2022-10-19T01:14:27.090Z,75.07
2022-10-19T01:18:04.676Z,75.21
2022-10-19T01:21:43.382Z,75.23
2022-10-19T01:25:25.054Z,75.09
2022-10-19T01:29:03.941Z,75.08
2022-10-19T01:32:39.542Z,75.12
2022-10-19T01:36:15.716Z,75.31
2022-10-19T01:39:51.777Z,74.96
2022-10-19T01:43:26.337Z,74.97
2022-10-19T01:46:58.440Z,75.12
2022-10-19T01:50:30.683Z,75.27
2022-10-19T01:54:04.363Z,75.35
2022-10-19T01:57:38.700Z,75.36
2022-10-19T02:04:43.790Z,75.30
2022-10-19T02:08:17.305Z,75.37
2022-10-19T02:11:46.440Z,75.34
2022-10-19T02:15:20.012Z,75.17
2022-10-19T02:18:50.488Z,75.31
2022-10-19T02:22:16.949Z,75.07
2022-10-19T02:25:43.875Z,75.32
2022-10-19T02:29:12.835Z,75.27
2022-10-19T02:32:39.186Z,75.25
2022-10-19T02:36:07.035Z,75.16
2022-10-19T02:39:33.783Z,74.98
2022-10-19T02:43:06.424Z,75.06
2022-10-19T02:46:37.427Z,74.91
2022-10-19T02:50:06.103Z,74.94
2022-10-19T02:53:33.077Z,75.14
2022-10-19T02:56:59.558Z,75.02
2022-10-19T03:00:26.568Z,75.11
2022-10-19T03:03:52.847Z,75.29
2022-10-19T03:07:21.253Z,75.25
2022-10-19T03:10:48.087Z,75.36
2022-10-19T03:14:14.556Z,75.23
2022-10-19T03:17:41.154Z,75.27
2022-10-19T03:24:51.096Z,75.23
2022-10-19T03:28:17.793Z,75.35
2022-10-19T03:31:44.214Z,75.31
2022-10-19T03:35:11.347Z,75.24
2022-10-19T03:38:37.877Z,75.47
2022-10-19T03:42:06.564Z,75.38
2022-10-19T03:45:33.278Z,75.33
2022-10-19T03:48:59.709Z,75.22
2022-10-19T03:52:26.771Z,75.20
2022-10-19T03:55:53.215Z,75.16
2022-10-19T03:59:19.729Z,75.11
2022-10-19T04:02:46.197Z,74.95
2022-10-19T04:06:18.190Z,75.02
2022-10-19T04:09:47.882Z,75.15
2022-10-19T04:13:14.490Z,75.10
2022-10-19T04:16:41.833Z,75.21
2022-10-19T04:20:10.224Z,75.17
2022-10-19T04:23:39.237Z,75.09
2022-10-19T04:27:05.901Z,75.04
2022-10-19T04:30:32.935Z,75.05
2022-10-19T04:33:59.821Z,75.09
2022-10-19T04:37:26.703Z,75.18
2022-10-19T04:40:53.418Z,75.23
2022-10-19T04:44:20.444Z,75.01
2022-10-19T04:47:47.139Z,75.12
2022-10-19T04:51:17.274Z,75.13
2022-10-19T04:54:43.805Z,75.26
2022-10-19T04:58:10.446Z,75.25
2022-10-19T05:01:46.455Z,75.28
2022-10-19T05:05:14.646Z,75.14
2022-10-19T05:08:41.448Z,75.21
2022-10-19T05:12:08.670Z,75.23
2022-10-19T05:15:36.373Z,75.32
2022-10-19T05:19:02.608Z,75.03
2022-10-19T05:22:29.620Z,75.05
2022-10-19T05:26:04.774Z,75.05
2022-10-19T05:29:31.545Z,75.03
2022-10-19T05:32:57.997Z,75.07
2022-10-19T05:36:26.489Z,75.12
2022-10-19T05:39:53.278Z,75.14
2022-10-19T05:43:19.814Z,75.29
2022-10-19T05:46:47.602Z,75.37
2022-10-19T05:50:14.472Z,75.52
2022-10-19T05:53:41.253Z,75.41
2022-10-19T05:57:07.788Z,75.68
2022-10-19T06:00:34.845Z,75.76
2022-10-19T06:04:03.246Z,75.81
2022-10-19T06:07:30.063Z,75.76
2022-10-19T06:11:05.300Z,75.72
2022-10-19T06:14:31.752Z,75.67
2022-10-19T06:17:58.283Z,75.75
2022-10-19T06:21:27.696Z,75.92
2022-10-19T06:24:54.251Z,75.92
2022-10-19T06:28:20.994Z,75.82
2022-10-19T06:31:49.443Z,75.82
2022-10-19T06:35:17.344Z,75.86
2022-10-19T06:38:44.350Z,75.87
2022-10-19T06:42:12.484Z,76.02
2022-10-19T06:45:41.960Z,75.99
2022-10-19T06:49:08.385Z,75.86
2022-10-19T06:52:35.885Z,76.01
2022-10-19T06:56:03.829Z,76.10
2022-10-19T06:59:33.184Z,76.05
2022-10-19T07:03:00.739Z,75.96
2022-10-19T07:06:29.767Z,75.81
2022-10-19T07:09:56.304Z,75.97
2022-10-19T07:13:22.849Z,76.01
2022-10-19T07:16:51.663Z,75.86
2022-10-19T07:20:18.453Z,75.70
2022-10-19T07:23:47.563Z,75.81
2022-10-19T07:27:14.112Z,75.79
2022-10-19T07:30:42.488Z,75.87
2022-10-19T07:34:12.903Z,76.06
2022-10-19T07:37:39.225Z,76.20
2022-10-19T07:41:12.887Z,76.16
2022-10-19T07:44:39.161Z,76.16
2022-10-19T07:48:05.665Z,76.02
2022-10-19T07:51:32.178Z,76.03
2022-10-19T07:54:58.587Z,76.20
2022-10-19T07:58:28.102Z,75.97
2022-10-19T08:01:56.050Z,75.93
2022-10-19T08:05:22.825Z,76.14
2022-10-19T08:08:50.766Z,76.08
2022-10-19T08:12:17.158Z,75.98
2022-10-19T08:15:43.766Z,75.86
2022-10-19T08:19:12.057Z,75.63
2022-10-19T08:22:38.813Z,75.39
2022-10-19T08:26:05.541Z,75.32
2022-10-19T08:29:32.330Z,75.20
2022-10-19T08:32:59.048Z,75.14
2022-10-19T08:36:27.872Z,75.18
2022-10-19T08:39:54.623Z,75.53
2022-10-19T08:43:36.358Z,75.22
2022-10-19T08:47:13.867Z,75.11
2022-10-19T08:51:03.149Z,75.09
2022-10-19T08:54:36.944Z,74.68
2022-10-19T08:58:15.163Z,74.74
2022-10-19T09:01:48.374Z,74.61
2022-10-19T09:05:16.873Z,74.60
2022-10-19T09:08:44.018Z,74.56
2022-10-19T09:12:16.891Z,74.53
2022-10-19T09:15:45.869Z,74.52
2022-10-19T09:19:26.029Z,74.44
2022-10-19T09:23:01.666Z,74.13
2022-10-19T09:26:32.496Z,74.20
2022-10-19T09:30:03.928Z,73.85
2022-10-19T09:33:36.910Z,73.51
2022-10-19T09:37:04.437Z,73.65
2022-10-19T09:40:32.429Z,73.36
2022-10-19T09:44:05.258Z,73.40
2022-10-19T09:47:47.671Z,73.49
2022-10-19T09:51:17.596Z,73.24
2022-10-19T09:54:44.776Z,72.96
2022-10-19T09:58:20.540Z,73.13
2022-10-19T10:01:46.978Z,72.68
2022-10-19T10:05:17.902Z,72.30
2022-10-19T10:08:50.396Z,72.36
2022-10-19T10:12:18.989Z,72.06
2022-10-19T10:15:49.465Z,71.91
2022-10-19T10:19:19.178Z,71.80
2022-10-19T10:22:59.281Z,71.45
2022-10-19T10:26:29.364Z,71.61
2022-10-19T10:29:59.591Z,71.44
2022-10-19T10:33:40.762Z,70.96
2022-10-19T10:37:21.657Z,70.81
2022-10-19T10:40:55.914Z,70.74
2022-10-19T10:44:29.923Z,70.69
2022-10-19T10:47:58.420Z,70.20
2022-10-19T10:51:34.104Z,70.07
2022-10-19T10:55:18.753Z,69.61
2022-10-19T10:58:51.930Z,69.66
2022-10-19T11:02:34.865Z,69.70
2022-10-19T11:06:03.307Z,69.77
2022-10-19T11:09:36.073Z,69.61
2022-10-19T11:13:09.849Z,68.98
2022-10-19T11:16:42.789Z,68.87
2022-10-19T11:20:17.438Z,68.81
2022-10-19T11:24:03.024Z,68.41
2022-10-19T11:27:45.092Z,68.13
2022-10-19T11:31:18.065Z,67.92
2022-10-19T11:35:00.744Z,67.70
2022-10-19T11:38:38.004Z,67.32
2022-10-19T11:42:17.518Z,67.12
2022-10-19T11:46:01.267Z,66.74
2022-10-19T11:49:42.628Z,66.41
2022-10-19T11:53:17.870Z,65.98
2022-10-19T11:57:03.245Z,65.89
2022-10-19T12:00:39.911Z,66.18
2022-10-19T12:04:49.280Z,66.00
2022-10-19T12:08:35.504Z,65.55
2022-10-19T12:12:22.197Z,65.33
2022-10-19T12:15:54.214Z,65.08
2022-10-19T12:19:36.348Z,64.75
2022-10-19T12:23:23.595Z,64.25
2022-10-19T12:26:51.959Z,63.97
2022-10-19T12:30:22.707Z,63.93
2022-10-19T12:34:01.230Z,63.20
2022-10-19T12:37:36.229Z,62.68
2022-10-19T12:41:16.172Z,62.22
2022-10-19T12:45:19.327Z,62.07
2022-10-19T12:48:46.079Z,62.21
2022-10-19T12:52:14.532Z,62.47
2022-10-19T12:55:43.538Z,62.25
2022-10-19T12:59:25.930Z,62.38
2022-10-19T13:03:05.460Z,62.25
2022-10-19T13:06:37.404Z,61.66
2022-10-19T13:10:06.207Z,61.42
2022-10-19T13:13:53.810Z,60.45
2022-10-19T13:17:44.102Z,60.44
2022-10-19T13:21:11.422Z,60.31
2022-10-19T13:28:53.753Z,60.30
2022-10-19T13:32:52.239Z,60.38
2022-10-19T13:36:20.074Z,60.14
2022-10-19T13:39:48.505Z,59.69
2022-10-19T13:43:23.406Z,59.56
2022-10-19T13:47:02.226Z,59.61
2022-10-19T13:50:43.928Z,59.79
2022-10-19T13:54:33.176Z,59.53
2022-10-19T13:58:21.815Z,59.33
2022-10-19T14:02:02.607Z,59.02
2022-10-19T14:05:49.755Z,58.83
2022-10-19T14:09:48.064Z,58.49
2022-10-19T14:13:17.516Z,58.61
2022-10-19T14:16:56.010Z,58.76
2022-10-19T14:20:36.812Z,58.57
2022-10-19T14:24:04.192Z,58.65
2022-10-19T14:27:31.944Z,58.63
2022-10-19T14:31:02.339Z,58.50
2022-10-19T14:34:29.035Z,58.44
2022-10-19T14:37:55.880Z,58.58
2022-10-19T14:45:08.102Z,58.51
2022-10-19T14:48:36.394Z,58.57
2022-10-19T14:52:08.216Z,58.40
2022-10-19T14:55:40.857Z,58.52
2022-10-19T14:59:19.363Z,58.49
2022-10-19T15:02:48.721Z,58.49
2022-10-19T15:06:23.561Z,58.32
2022-10-19T15:09:58.401Z,58.28
2022-10-19T15:13:30.419Z,58.43
2022-10-19T15:16:59.983Z,58.31
2022-10-19T15:20:43.922Z,58.52
2022-10-19T15:24:29.324Z,58.57
2022-10-19T15:27:58.034Z,58.58
2022-10-19T15:31:30.595Z,58.56
2022-10-19T15:35:12.736Z,58.74
2022-10-19T15:38:39.956Z,58.76
2022-10-19T15:42:25.150Z,58.71
2022-10-19T15:46:03.597Z,58.80
2022-10-19T15:50:01.190Z,58.88
2022-10-19T15:53:33.572Z,59.01
2022-10-19T15:57:03.254Z,58.83
2022-10-19T16:00:32.616Z,58.97
2022-10-19T16:04:00.850Z,59.02
2022-10-19T16:07:32.360Z,59.07
2022-10-19T16:11:02.429Z,59.25
2022-10-19T16:14:37.409Z,59.24
2022-10-19T16:18:06.481Z,59.29
2022-10-19T16:21:36.449Z,59.45
2022-10-19T16:25:03.505Z,59.66
2022-10-19T16:28:30.413Z,59.69
2022-10-19T16:32:02.480Z,59.54
2022-10-19T16:35:32.329Z,59.90
2022-10-19T16:39:08.085Z,59.77
2022-10-19T16:42:37.274Z,59.99
2022-10-19T16:46:06.164Z,60.10
2022-10-19T16:49:34.828Z,60.20
2022-10-19T16:53:12.769Z,60.38
2022-10-19T16:56:45.356Z,60.35
2022-10-19T17:00:16.992Z,60.42
2022-10-19T17:03:43.695Z,60.55
2022-10-19T17:07:13.675Z,60.85
2022-10-19T17:10:40.930Z,60.87
2022-10-19T17:14:12.086Z,61.11
2022-10-19T17:17:39.494Z,60.81
2022-10-19T17:21:20.421Z,61.00
2022-10-19T17:24:47.683Z,61.26
2022-10-19T17:28:14.575Z,61.21
2022-10-19T17:31:42.561Z,60.99
2022-10-19T17:35:11.192Z,61.02
2022-10-19T17:38:38.583Z,61.42
2022-10-19T17:42:07.005Z,61.36
2022-10-19T17:45:36.513Z,61.66
2022-10-19T17:49:05.618Z,61.51
2022-10-19T17:52:32.616Z,61.76
2022-10-19T17:56:02.440Z,61.31
2022-10-19T17:59:30.588Z,61.53
2022-10-19T18:03:02.891Z,61.54
2022-10-19T18:06:31.899Z,61.60
2022-10-19T18:10:02.068Z,61.84
2022-10-19T18:13:29.440Z,61.86
2022-10-19T18:16:58.375Z,62.20
2022-10-19T18:20:25.540Z,62.02
2022-10-19T18:23:53.728Z,62.20
2022-10-19T18:27:23.738Z,62.04
2022-10-19T18:30:50.584Z,61.96
2022-10-19T18:34:20.325Z,62.14
2022-10-19T18:37:49.668Z,62.36
2022-10-19T18:41:18.430Z,62.37
2022-10-19T18:44:45.132Z,62.19
2022-10-19T18:48:12.414Z,62.42
2022-10-19T18:51:40.032Z,62.57
2022-10-19T18:55:09.883Z,62.68
2022-10-19T18:58:41.081Z,62.27
2022-10-19T19:02:13.692Z,62.56
2022-10-19T19:05:50.317Z,62.62
2022-10-19T19:09:19.194Z,62.95
2022-10-19T19:12:48.325Z,63.11
2022-10-19T19:16:17.322Z,62.97
2022-10-19T19:19:45.712Z,62.90
2022-10-19T19:23:12.358Z,63.12
2022-10-19T19:26:43.414Z,63.23
2022-10-19T19:30:12.267Z,63.22
2022-10-19T19:33:40.153Z,63.47
2022-10-19T19:37:10.347Z,63.54
2022-10-19T19:40:42.170Z,63.55
2022-10-19T19:44:14.571Z,63.54
2022-10-19T19:47:41.807Z,63.74
2022-10-19T19:51:10.723Z,63.79
2022-10-19T19:54:37.713Z,64.02
2022-10-19T19:58:04.463Z,63.99
2022-10-19T20:01:32.302Z,64.08
2022-10-19T20:04:59.040Z,64.19
2022-10-19T20:08:30.848Z,64.09
2022-10-19T20:11:58.989Z,64.04
2022-10-19T20:15:27.208Z,64.19
2022-10-19T20:18:58.020Z,64.21
2022-10-19T20:22:27.143Z,64.38
2022-10-19T20:26:00.003Z,64.38
2022-10-19T20:29:30.446Z,64.32
2022-10-19T20:33:04.861Z,64.31
2022-10-19T20:36:34.268Z,64.34
2022-10-19T20:40:08.563Z,64.43
2022-10-19T20:43:59.265Z,64.56
2022-10-19T20:47:26.100Z,64.68
2022-10-19T20:50:53.139Z,64.72
2022-10-19T20:54:19.663Z,64.82
2022-10-19T20:57:51.159Z,64.86
2022-10-19T21:01:20.363Z,64.95
2022-10-19T21:04:48.287Z,64.98
2022-10-19T21:08:31.060Z,64.92
2022-10-19T21:11:59.557Z,64.85
2022-10-19T21:15:28.431Z,64.86
2022-10-19T21:18:56.191Z,64.84
2022-10-19T21:22:23.326Z,64.76
2022-10-19T21:26:00.677Z,64.68
2022-10-19T21:29:28.646Z,64.91
2022-10-19T21:32:55.470Z,64.94
2022-10-19T21:36:25.476Z,65.04
2022-10-19T21:39:54.394Z,65.04
2022-10-19T21:43:22.433Z,65.15
2022-10-19T21:46:50.697Z,65.15
2022-10-19T21:50:20.132Z,65.33
2022-10-19T21:53:48.104Z,65.48
2022-10-19T21:57:14.983Z,65.63
2022-10-19T22:00:42.347Z,65.67
2022-10-19T22:04:12.899Z,65.74
2022-10-19T22:07:39.530Z,65.72
2022-10-19T22:11:10.232Z,65.65
2022-10-19T22:14:37.384Z,65.93
2022-10-19T22:18:04.620Z,65.78
2022-10-19T22:21:34.194Z,65.56
2022-10-19T22:25:02.932Z,65.46
2022-10-19T22:28:30.213Z,65.47
2022-10-19T22:31:58.364Z,65.61
2022-10-19T22:35:25.799Z,65.55
2022-10-19T22:38:53.873Z,65.46
2022-10-19T22:42:20.750Z,65.36
2022-10-19T22:45:50.052Z,65.68
2022-10-19T22:49:16.273Z,65.65
2022-10-19T22:52:46.524Z,65.81
2022-10-19T22:56:14.407Z,65.83
2022-10-19T22:59:41.011Z,65.90
2022-10-19T23:03:08.474Z,65.89
2022-10-19T23:06:36.358Z,65.99
2022-10-19T23:10:02.994Z,66.23
2022-10-19T23:13:29.910Z,66.20
2022-10-19T23:16:56.901Z,66.11
2022-10-19T23:20:23.454Z,65.71
2022-10-19T23:23:50.247Z,66.02
2022-10-19T23:27:17.616Z,65.95
2022-10-19T23:30:44.957Z,65.66
2022-10-19T23:34:12.048Z,65.74
2022-10-19T23:37:38.956Z,65.85
2022-10-19T23:41:07.119Z,66.05
2022-10-19T23:44:34.236Z,65.93
2022-10-19T23:48:01.722Z,66.10
2022-10-19T23:51:28.393Z,66.43
2022-10-19T23:54:55.232Z,66.49
2022-10-19T23:58:22.150Z,66.22
